createdAt,value
2022-09-16T00:01:01.561Z,11.93
2022-09-16T00:06:04.692Z,11.85
2022-09-16T00:11:07.582Z,11.88
2022-09-16T00:16:17.561Z,11.79
2022-09-16T00:21:20.523Z,11.69
2022-09-16T00:26:23.456Z,11.69
2022-09-16T00:31:27.828Z,11.61
2022-09-16T00:36:31.398Z,11.53
2022-09-16T00:41:34.387Z,11.53
2022-09-16T00:46:43.167Z,11.43
2022-09-16T00:51:48.947Z,11.45
2022-09-16T00:56:55.553Z,11.39
2022-09-16T01:02:05.597Z,11.33
2022-09-16T01:07:08.882Z,11.31
2022-09-16T01:12:11.785Z,11.23
2022-09-16T01:17:23.291Z,11.18
2022-09-16T01:22:44.525Z,11.09
2022-09-16T01:28:11.276Z,11.10
2022-09-16T01:33:24.876Z,11.05
2022-09-16T01:38:46.156Z,11.00
2022-09-16T01:43:57.257Z,11.04
2022-09-16T01:49:10.763Z,11.08
2022-09-16T01:54:18.788Z,11.05
2022-09-16T01:59:26.881Z,11.17
2022-09-16T02:04:36.208Z,11.08
2022-09-16T02:09:43.624Z,11.04
2022-09-16T02:14:49.259Z,11.10
2022-09-16T02:19:58.889Z,11.12
2022-09-16T02:25:04.199Z,11.05
2022-09-16T02:30:10.775Z,11.12
2022-09-16T02:35:18.222Z,11.15
2022-09-16T02:40:25.641Z,11.13
2022-09-16T02:45:38.249Z,11.22
2022-09-16T02:50:48.975Z,11.13
2022-09-16T02:55:55.643Z,11.00
2022-09-16T03:00:59.005Z,11.19
2022-09-16T03:06:17.854Z,11.11
2022-09-16T03:11:36.608Z,11.19
2022-09-16T03:16:49.224Z,11.17
2022-09-16T03:22:00.219Z,11.07
2022-09-16T03:27:10.331Z,11.09
2022-09-16T03:32:21.113Z,10.96
2022-09-16T03:37:28.803Z,11.00
2022-09-16T03:42:32.337Z,10.90
2022-09-16T03:47:35.304Z,10.84
2022-09-16T03:52:39.593Z,10.85
2022-09-16T03:57:42.479Z,10.85
2022-09-16T04:02:45.493Z,10.62
2022-09-16T04:07:51.056Z,10.61
2022-09-16T04:12:58.053Z,10.62
2022-09-16T04:18:01.523Z,10.69
2022-09-16T04:23:05.840Z,10.58
2022-09-16T04:28:09.045Z,10.71
2022-09-16T04:33:12.372Z,10.70
2022-09-16T04:38:16.654Z,10.79
2022-09-16T04:43:19.604Z,10.80
2022-09-16T04:48:22.624Z,10.85
2022-09-16T04:53:27.678Z,10.83
2022-09-16T04:58:30.778Z,10.77
2022-09-16T05:03:33.875Z,10.75
2022-09-16T05:08:38.723Z,10.81
2022-09-16T05:13:41.959Z,10.83
2022-09-16T05:18:46.388Z,10.74
2022-09-16T05:23:51.133Z,10.79
2022-09-16T05:28:54.568Z,10.85
2022-09-16T05:33:59.008Z,10.87
2022-09-16T05:44:27.663Z,11.04
2022-09-16T05:49:30.616Z,11.15
2022-09-16T05:54:34.874Z,11.33
2022-09-16T05:59:37.773Z,11.35
2022-09-16T06:04:40.683Z,11.59
2022-09-16T06:09:45.280Z,12.13
2022-09-16T06:14:48.213Z,11.87
2022-09-16T06:19:51.135Z,11.79
2022-09-16T06:24:55.417Z,11.83
2022-09-16T06:29:58.336Z,12.03
2022-09-16T06:35:01.261Z,12.14
2022-09-16T06:40:06.432Z,12.08
2022-09-16T06:45:10.128Z,11.94
2022-09-16T06:50:13.095Z,12.01
2022-09-16T06:55:17.602Z,12.29
2022-09-16T07:00:21.255Z,12.70
2022-09-16T07:05:24.167Z,13.09
2022-09-16T07:10:28.450Z,13.00
2022-09-16T07:15:31.323Z,13.12
2022-09-16T07:20:34.369Z,12.75
2022-09-16T07:25:38.630Z,12.49
2022-09-16T07:30:42.129Z,12.30
2022-09-16T07:35:45.135Z,12.69
2022-09-16T07:40:49.433Z,12.76
2022-09-16T07:45:57.770Z,12.66
2022-09-16T07:51:02.469Z,12.52
2022-09-16T07:56:09.880Z,12.47
2022-09-16T08:01:15.240Z,12.42
2022-09-16T08:06:20.600Z,12.42
2022-09-16T08:11:25.338Z,12.75
2022-09-16T08:16:28.666Z,13.85
2022-09-16T08:21:31.867Z,14.35
2022-09-16T08:26:36.125Z,14.13
2022-09-16T08:31:39.757Z,14.43
2022-09-16T08:36:42.744Z,14.73
2022-09-16T08:42:11.374Z,14.68
2022-09-16T08:47:28.601Z,14.73
2022-09-16T08:52:33.488Z,15.56
2022-09-16T08:57:41.630Z,15.00
2022-09-16T09:02:52.468Z,14.27
2022-09-16T09:08:15.629Z,13.76
2022-09-16T09:13:36.984Z,13.92
2022-09-16T09:18:52.036Z,14.16
2022-09-16T09:24:11.678Z,13.94
2022-09-16T09:29:39.980Z,13.83
2022-09-16T09:34:58.279Z,13.29
2022-09-16T09:40:10.456Z,13.86
2022-09-16T09:45:22.317Z,14.79
2022-09-16T09:50:29.780Z,14.55
2022-09-16T09:55:35.656Z,14.28
2022-09-16T10:00:40.082Z,15.09
2022-09-16T10:05:43.513Z,15.09
2022-09-16T10:10:50.917Z,15.04
2022-09-16T10:16:08.018Z,15.11
2022-09-16T10:21:14.138Z,15.51
2022-09-16T10:26:22.539Z,15.19
2022-09-16T10:31:33.683Z,14.75
2022-09-16T10:36:37.706Z,14.05
2022-09-16T10:41:46.037Z,13.58
2022-09-16T10:46:56.836Z,13.23
2022-09-16T10:52:09.398Z,13.81
2022-09-16T10:57:24.335Z,13.89
2022-09-16T11:02:41.368Z,13.80
2022-09-16T11:07:52.163Z,15.09
2022-09-16T11:13:19.855Z,15.26
2022-09-16T11:18:50.782Z,16.03
2022-09-16T11:24:14.105Z,15.95
2022-09-16T11:29:45.626Z,14.05
2022-09-16T11:35:04.819Z,13.65
2022-09-16T11:40:18.626Z,13.78
2022-09-16T11:45:42.151Z,14.59
2022-09-16T11:50:53.330Z,14.83
2022-09-16T11:56:00.866Z,14.76
2022-09-16T12:01:15.346Z,15.02
2022-09-16T12:06:23.718Z,15.24
2022-09-16T12:11:33.166Z,15.37
2022-09-16T12:16:40.649Z,15.22
2022-09-16T12:21:49.954Z,15.39
2022-09-16T12:26:58.521Z,15.75
2022-09-16T12:32:05.899Z,15.22
2022-09-16T12:37:25.917Z,15.84
2022-09-16T12:42:58.927Z,15.11
2022-09-16T12:48:23.478Z,15.45
2022-09-16T12:53:56.797Z,15.64
2022-09-16T12:59:27.105Z,15.14
2022-09-16T13:04:33.613Z,15.13
2022-09-16T13:09:40.777Z,14.69
2022-09-16T13:14:49.041Z,15.30
2022-09-16T13:19:54.011Z,15.47
2022-09-16T13:25:06.853Z,15.97
2022-09-16T13:30:29.098Z,15.78
2022-09-16T13:35:50.337Z,15.71
2022-09-16T13:41:00.440Z,15.47
2022-09-16T13:46:06.866Z,15.75
2022-09-16T13:51:16.239Z,15.67
2022-09-16T13:56:51.748Z,15.40
2022-09-16T14:02:04.617Z,15.72
2022-09-16T14:07:20.818Z,15.55
2022-09-16T14:12:34.883Z,15.22
2022-09-16T14:17:42.187Z,14.77
2022-09-16T14:22:45.536Z,15.01
2022-09-16T14:27:49.830Z,14.86
2022-09-16T14:32:52.820Z,15.33
2022-09-16T14:37:59.999Z,15.13
2022-09-16T14:43:06.763Z,15.02
2022-09-16T14:48:11.827Z,15.07
2022-09-16T14:53:33.850Z,14.89
2022-09-16T14:58:39.800Z,15.04
2022-09-16T15:03:47.413Z,14.83
2022-09-16T15:08:54.427Z,14.87
2022-09-16T15:13:59.916Z,14.79
2022-09-16T15:19:05.480Z,14.82
2022-09-16T15:24:19.254Z,14.80
2022-09-16T15:29:32.494Z,14.66
2022-09-16T15:34:35.910Z,14.81
2022-09-16T15:39:40.732Z,14.79
2022-09-16T15:44:51.144Z,14.63
2022-09-16T15:49:59.298Z,14.52
2022-09-16T15:55:06.428Z,14.24
2022-09-16T16:00:16.350Z,14.13
2022-09-16T16:05:22.177Z,13.89
2022-09-16T16:10:26.785Z,13.87
2022-09-16T16:15:34.893Z,13.86
2022-09-16T16:20:39.048Z,13.49
2022-09-16T16:25:41.964Z,13.38
2022-09-16T16:30:46.367Z,13.34
2022-09-16T16:35:49.586Z,13.32
2022-09-16T16:40:52.813Z,13.29
2022-09-16T16:45:57.716Z,13.32
2022-09-16T16:51:03.593Z,13.20
2022-09-16T16:56:14.008Z,13.02
2022-09-16T17:01:21.081Z,12.91
2022-09-16T17:06:24.149Z,12.73
2022-09-16T17:11:27.684Z,12.64
2022-09-16T17:16:32.760Z,12.50
2022-09-16T17:21:37.476Z,12.42
2022-09-16T17:26:40.501Z,12.33
2022-09-16T17:31:45.481Z,12.24
2022-09-16T17:36:48.613Z,12.13
2022-09-16T17:41:51.592Z,12.11
2022-09-16T17:46:56.168Z,12.00
2022-09-16T17:51:59.135Z,12.02
2022-09-16T17:57:02.078Z,11.76
2022-09-16T18:02:06.679Z,11.90
2022-09-16T18:07:10.713Z,11.69
2022-09-16T18:12:13.633Z,11.66
2022-09-16T18:17:18.794Z,11.59
2022-09-16T18:22:21.787Z,11.68
2022-09-16T18:27:25.463Z,11.50
2022-09-16T18:32:30.142Z,11.42
2022-09-16T18:37:33.075Z,11.48
2022-09-16T18:42:36.020Z,11.34
2022-09-16T18:47:40.399Z,11.30
2022-09-16T18:52:43.331Z,11.24
2022-09-16T18:57:46.269Z,11.10
2022-09-16T19:02:52.940Z,11.12
2022-09-16T19:07:55.941Z,10.99
2022-09-16T19:12:58.841Z,10.91
2022-09-16T19:18:03.126Z,10.89
2022-09-16T19:23:06.060Z,10.78
2022-09-16T19:28:09.080Z,10.86
2022-09-16T19:33:13.599Z,10.86
2022-09-16T19:38:16.571Z,10.68
2022-09-16T19:43:19.676Z,10.73
2022-09-16T19:48:24.432Z,10.84
2022-09-16T19:53:28.221Z,10.66
2022-09-16T19:58:32.537Z,10.56
2022-09-16T20:03:38.311Z,10.65
2022-09-16T20:08:43.267Z,10.67
2022-09-16T20:13:49.617Z,10.64
2022-09-16T20:18:54.401Z,10.62
2022-09-16T20:23:57.896Z,10.58
2022-09-16T20:29:00.955Z,10.43
2022-09-16T20:34:06.088Z,10.33
2022-09-16T20:39:10.031Z,10.36
2022-09-16T20:44:15.693Z,10.32
2022-09-16T20:49:22.995Z,10.33
2022-09-16T20:54:26.026Z,10.37
2022-09-16T20:59:29.932Z,10.20
2022-09-16T21:04:34.218Z,10.28
2022-09-16T21:09:37.141Z,10.10
2022-09-16T21:14:40.071Z,10.19
2022-09-16T21:19:44.387Z,10.21
2022-09-16T21:24:47.874Z,10.09
2022-09-16T21:29:52.090Z,10.16
2022-09-16T21:34:56.361Z,10.02
2022-09-16T21:40:00.632Z,10.04
2022-09-16T21:45:03.597Z,9.93
2022-09-16T21:50:08.593Z,9.90
2022-09-16T21:55:11.506Z,10.01
2022-09-16T22:00:15.508Z,9.90
2022-09-16T22:05:19.769Z,9.80
2022-09-16T22:10:22.712Z,9.78
2022-09-16T22:15:25.678Z,9.73
2022-09-16T22:20:29.956Z,9.73
2022-09-16T22:25:32.843Z,9.66
2022-09-16T22:30:35.823Z,9.62
2022-09-16T22:35:40.097Z,9.53
2022-09-16T22:40:43.004Z,9.42
2022-09-16T22:45:45.925Z,9.44
2022-09-16T22:50:57.356Z,9.46
2022-09-16T22:56:01.955Z,9.37
2022-09-16T23:01:07.725Z,9.32
2022-09-16T23:06:14.002Z,9.24
2022-09-16T23:11:19.827Z,9.29
2022-09-16T23:16:24.730Z,9.17
2022-09-16T23:21:30.267Z,9.11
2022-09-16T23:26:36.005Z,9.16
2022-09-16T23:31:40.902Z,9.08
2022-09-16T23:36:45.855Z,9.11
2022-09-16T23:41:51.260Z,9.13
2022-09-16T23:46:54.215Z,9.04
2022-09-16T23:51:58.562Z,9.10
2022-09-16T23:57:01.454Z,9.02
